Time;durP1;ratioP1;P1;durP2;ratioP2;P2;SDS_P1;SDS_P2;PMS_P1;PMS_P2;Temp;Humidity;BMP_temperature;BMP_pressure;BME280_temperature;BME280_humidity;BME280_pressure;Samples;Min_cycle;Max_cycle;Signal;HPM_P1;HPM_P2
2021/11/14 00:02:00;;;;;;;56.67;22.73;;;6.30;99.90;;;4.65;100.00;101452.44;4876313;28;20864;-81
2021/11/14 00:04:26;;;;;;;57.17;20.48;;;6.40;99.90;;;4.70;100.00;101444.56;4858245;28;20039;-80
2021/11/14 00:06:57;;;;;;;49.83;19.40;;;6.40;99.90;;;4.76;100.00;101454.94;4861153;28;20027;-81
2021/11/14 00:09:28;;;;;;;51.50;20.30;;;6.50;99.90;;;4.80;100.00;101458.41;4870288;28;20031;-82
2021/11/14 00:11:57;;;;;;;52.88;20.58;;;6.50;99.90;;;4.82;100.00;101459.25;4888406;28;20035;-81
2021/11/14 00:14:29;;;;;;;48.03;20.05;;;6.50;99.90;;;4.82;100.00;101454.03;4851897;28;20038;-83
2021/11/14 00:16:55;;;;;;;56.17;23.38;;;6.50;99.90;;;4.85;100.00;101461.81;4881130;28;20032;-80
2021/11/14 00:19:21;;;;;;;59.42;22.13;;;6.50;99.90;;;4.83;100.00;101458.34;4856468;28;20058;-81
2021/11/14 00:21:48;;;;;;;56.30;22.23;;;6.60;99.90;;;4.86;100.00;101461.81;4832044;28;20168;-80
2021/11/14 00:24:25;;;;;;;59.65;22.70;;;6.60;99.90;;;4.86;100.00;101467.00;4852798;28;20035;-80
2021/11/14 00:26:51;;;;;;;61.08;23.45;;;6.60;99.90;;;4.87;100.00;101460.03;4859987;28;20097;-80
2021/11/14 00:29:26;;;;;;;59.28;23.20;;;6.60;99.90;;;4.90;100.00;101463.50;4864413;28;20094;-80
2021/11/14 00:31:52;;;;;;;67.03;23.60;;;6.70;99.90;;;4.98;100.00;101476.44;4893118;28;20051;-81
2021/11/14 00:34:18;;;;;;;56.88;23.00;;;6.70;99.90;;;4.94;100.00;101470.38;4861636;28;20066;-79
2021/11/14 00:36:45;;;;;;;53.78;22.25;;;6.70;99.90;;;4.96;100.00;101466.91;4845510;28;20097;-79
2021/11/14 00:39:16;;;;;;;56.30;22.67;;;6.70;99.90;;;4.91;100.00;101466.97;4891974;28;20361;-79
2021/11/14 00:41:47;;;;;;;54.20;21.95;;;6.60;99.90;;;4.89;100.00;101461.75;4891335;28;20035;-80
2021/11/14 00:44:23;;;;;;;57.17;21.90;;;6.60;99.90;;;4.91;100.00;101464.34;4889507;28;20027;-79
2021/11/14 00:46:49;;;;;;;68.97;25.60;;;6.60;99.90;;;4.96;100.00;101472.97;4882104;28;20052;-79
2021/11/14 00:49:16;;;;;;;63.90;22.05;;;6.60;99.90;;;4.99;100.00;101478.19;4838710;28;20062;-79
2021/11/14 00:51:47;;;;;;;59.10;22.80;;;6.70;99.90;;;4.97;100.00;101468.63;4894839;28;20334;-79
2021/11/14 00:54:14;;;;;;;57.38;22.15;;;6.70;99.90;;;4.94;100.00;101473.00;4877174;28;20044;-80
2021/11/14 00:56:41;;;;;;;65.38;23.25;;;6.60;99.90;;;4.92;100.00;101464.34;4877497;28;20031;-79
2021/11/14 00:59:07;;;;;;;55.97;22.55;;;6.60;99.90;;;4.94;100.00;101461.69;4853967;28;20055;-78
2021/11/14 01:01:41;;;;;;;56.78;22.13;;;6.60;99.90;;;4.89;100.00;101455.69;4891013;28;20412;-79
2021/11/14 01:04:07;;;;;;;57.30;21.73;;;6.60;99.90;;;4.93;100.00;101467.81;4876286;28;20028;-79
2021/11/14 01:06:33;;;;;;;57.47;22.80;;;6.70;99.90;;;4.94;100.00;101469.53;4830706;28;20582;-80
2021/11/14 01:08:59;;;;;;;56.78;23.25;;;6.70;99.90;;;4.92;100.00;101466.06;4874138;28;20039;-79
2021/11/14 01:11:31;;;;;;;60.03;22.50;;;6.70;99.90;;;4.92;100.00;101460.84;4881905;28;20400;-78
2021/11/14 01:13:57;;;;;;;53.20;22.00;;;6.60;99.90;;;4.93;100.00;101465.19;4852578;28;20031;-80
2021/11/14 01:16:24;;;;;;;52.38;21.63;;;6.60;99.90;;;4.91;100.00;101465.22;4859429;28;20537;-80
2021/11/14 01:18:51;;;;;;;59.40;23.02;;;6.60;99.90;;;4.90;100.00;101473.03;4893014;28;20035;-80
2021/11/14 01:21:20;;;;;;;68.53;24.48;;;6.60;99.90;;;4.88;100.00;101475.69;4860596;28;20039;-79
2021/11/14 01:23:50;;;;;;;58.75;24.70;;;6.60;99.90;;;4.90;100.00;101479.16;4864042;28;20066;-80
2021/11/14 01:26:17;;;;;;;59.25;23.92;;;6.60;99.90;;;4.92;100.00;101477.41;4872490;28;20072;-80
2021/11/14 01:28:43;;;;;;;62.58;24.15;;;6.70;99.90;;;4.96;100.00;101483.41;4852126;28;20032;-80
2021/11/14 01:31:17;;;;;;;65.13;25.70;;;6.70;99.90;;;4.94;100.00;101485.19;4883439;28;20132;-80
2021/11/14 01:33:43;;;;;;;62.90;24.48;;;6.60;99.90;;;4.92;100.00;101497.38;4891604;28;20057;-80
2021/11/14 01:36:09;;;;;;;66.68;25.35;;;6.60;99.90;;;4.95;100.00;101505.19;4872232;28;20039;-80
2021/11/14 01:38:36;;;;;;;69.55;24.65;;;6.60;99.90;;;4.93;100.00;101497.38;4847277;28;20043;-79
2021/11/14 01:41:13;;;;;;;58.42;22.55;;;6.60;99.90;;;4.94;100.00;101506.06;4831330;28;20475;-79
2021/11/14 01:43:51;;;;;;;62.28;22.10;;;6.60;99.90;;;4.90;100.00;101504.34;4868216;28;20124;-79
2021/11/14 01:46:19;;;;;;;53.03;21.85;;;6.60;99.90;;;4.89;100.00;101507.88;4879004;28;20031;-80
2021/11/14 01:48:54;;;;;;;55.88;22.50;;;6.60;99.90;;;4.88;100.00;101513.94;4886227;28;20031;-79
2021/11/14 01:51:21;;;;;;;57.58;22.98;;;6.60;99.90;;;4.89;100.00;101505.25;4876826;28;20090;-78
2021/11/14 01:53:49;;;;;;;58.25;21.65;;;6.60;99.90;;;4.90;100.00;101513.09;4871034;28;21511;-79
2021/11/14 01:56:20;;;;;;;58.65;22.80;;;6.60;99.90;;;4.91;100.00;101516.53;4893135;28;20039;-80
2021/11/14 01:58:47;;;;;;;52.60;21.80;;;6.60;99.90;;;4.93;100.00;101535.66;4922185;28;20023;-80
2021/11/14 02:01:27;;;;;;;54.03;21.33;;;6.60;99.90;;;4.94;100.00;101526.94;4897526;28;20510;-79
2021/11/14 02:03:57;;;;;;;63.53;23.88;;;6.60;99.90;;;5.00;100.00;101528.63;4875246;28;20039;-79
2021/11/14 02:06:35;;;;;;;53.40;22.50;;;6.70;99.90;;;4.97;100.00;101529.53;4883047;28;20116;-80
2021/11/14 02:09:11;;;;;;;59.10;21.80;;;6.70;99.90;;;4.95;100.00;101533.91;4888671;28;20522;-79
2021/11/14 02:11:37;;;;;;;;;;;6.70;99.90;;;4.95;100.00;101526.06;4883060;28;20035;-79
2021/11/14 02:14:03;;;;;;;50.87;20.10;;;6.70;99.90;;;4.97;100.00;101539.97;4864144;28;19914;-79
2021/11/14 02:16:36;;;;;;;56.97;22.27;;;6.70;99.90;;;5.01;100.00;101544.28;4849658;28;20067;-79
2021/11/14 02:19:03;;;;;;;53.72;22.45;;;6.80;99.90;;;5.03;100.00;101536.41;4855707;28;20059;-80
2021/11/14 02:21:29;;;;;;;58.00;21.58;;;6.80;99.90;;;5.10;100.00;101528.50;4889941;28;20030;-79
2021/11/14 02:23:55;;;;;;;55.53;22.63;;;6.80;99.90;;;5.04;100.00;101535.56;4917991;28;20034;-79
2021/11/14 02:26:31;;;;;;;52.72;20.85;;;6.70;99.90;;;5.02;100.00;101534.72;4921297;28;20058;-79
2021/11/14 02:28:57;;;;;;;52.58;22.48;;;;;;;5.01;100.00;101533.84;4866333;28;20026;-79
2021/11/14 02:31:26;;;;;;;57.10;22.55;;;6.70;99.90;;;5.00;100.00;101537.31;4881808;28;20043;-79
2021/11/14 02:33:56;;;;;;;61.30;22.42;;;7.50;99.90;;;5.00;100.00;101533.84;4928610;28;20058;-80
2021/11/14 02:36:24;;;;;;;53.03;21.17;;;6.70;99.90;;;5.01;100.00;101546.00;4860041;28;20051;-80
2021/11/14 02:38:51;;;;;;;62.53;23.02;;;6.70;99.90;;;5.00;100.00;101545.16;4877063;28;20067;-80
2021/11/14 02:41:25;;;;;;;59.40;24.10;;;6.70;99.90;;;4.96;100.00;101548.66;4860177;28;20039;-79
2021/11/14 02:43:54;;;;;;;55.40;22.17;;;6.70;99.90;;;5.02;100.00;101550.38;4850568;28;20052;-79
2021/11/14 02:46:20;;;;;;;58.60;23.90;;;6.70;99.90;;;5.01;100.00;101557.34;4865784;28;20087;-79
2021/11/14 02:48:54;;;;;;;60.50;24.17;;;6.70;99.90;;;5.01;100.00;101553.84;4874838;28;20117;-80
2021/11/14 02:51:26;;;;;;;54.90;21.42;;;6.70;99.90;;;5.03;100.00;101563.41;4899374;28;20035;-79
2021/11/14 02:54:01;;;;;;;64.80;23.15;;;6.70;99.90;;;5.02;100.00;101556.44;4870611;28;20028;-79
2021/11/14 02:56:29;;;;;;;66.82;24.45;;;6.70;99.90;;;5.01;100.00;101561.66;4872268;28;20028;-79
2021/11/14 02:59:03;;;;;;;52.08;21.17;;;6.70;99.90;;;5.01;100.00;101561.66;4848922;29;20030;-80
2021/11/14 03:01:47;;;;;;;60.35;22.83;;;6.70;99.90;;;4.99;100.00;101556.50;4863562;28;20607;-79
2021/11/14 03:04:21;;;;;;;64.18;23.83;;;6.70;99.90;;;5.02;100.00;101566.88;4893349;28;20046;-79
2021/11/14 03:06:52;;;;;;;58.13;22.27;;;6.60;99.90;;;5.02;100.00;101555.59;4854511;28;20047;-78
2021/11/14 03:09:23;;;;;;;60.60;23.17;;;6.80;99.90;;;5.03;100.00;101559.91;4901324;28;20034;-79
2021/11/14 03:11:52;;;;;;;62.53;23.73;;;6.70;99.90;;;5.01;100.00;101564.28;4846759;28;20036;-80
2021/11/14 03:14:18;;;;;;;77.18;27.02;;;6.70;99.90;;;5.01;100.00;101562.56;4865455;28;20042;-79
2021/11/14 03:16:48;;;;;;;62.30;24.02;;;6.70;99.90;;;5.02;100.00;101553.84;4887384;28;20707;-79
2021/11/14 03:19:17;;;;;;;71.80;24.63;;;6.70;99.90;;;5.03;100.00;101563.41;4863354;28;20031;-80
2021/11/14 03:21:44;;;;;;;73.25;26.27;;;6.70;99.90;;;5.03;100.00;101557.31;4852120;28;20031;-79
2021/11/14 03:24:12;;;;;;;69.55;23.17;;;6.70;99.90;;;5.02;100.00;101561.66;4888893;28;20180;-79
2021/11/14 03:26:40;;;;;;;65.60;25.05;;;6.70;99.90;;;5.02;100.00;101564.28;4883850;28;20019;-78
2021/11/14 03:29:09;;;;;;;63.20;24.02;;;6.70;99.90;;;5.04;100.00;101562.50;4910955;28;20026;-80
2021/11/14 03:31:36;;;;;;;67.10;23.92;;;6.70;99.90;;;5.02;100.00;101569.50;4867479;28;20157;-79
2021/11/14 03:34:02;;;;;;;62.85;22.00;;;6.70;99.90;;;5.03;100.00;101573.84;4859531;28;20027;-79
2021/11/14 03:36:30;;;;;;;61.75;22.35;;;6.70;99.90;;;5.03;100.00;101579.06;4871731;28;20047;-79
2021/11/14 03:39:03;;;;;;;61.72;22.42;;;6.70;99.90;;;5.02;100.00;101582.53;4883717;28;20628;-79
2021/11/14 03:41:35;;;;;;;65.40;24.35;;;6.70;99.90;;;5.02;100.00;101598.22;4887144;28;20032;-79
2021/11/14 03:44:08;;;;;;;80.28;25.67;;;6.70;99.90;;;5.01;100.00;101601.72;4849878;28;20024;-80
2021/11/14 03:46:35;;;;;;;78.80;24.73;;;6.70;99.90;;;5.04;100.00;101604.28;4883769;28;20039;-79
2021/11/14 03:49:03;;;;;;;80.53;24.45;;;6.70;99.90;;;5.05;100.00;101608.59;4877161;28;20127;-79
2021/11/14 03:51:33;;;;;;;75.57;26.13;;;;;;;5.07;100.00;101606.00;4857834;28;20024;-80
2021/11/14 03:53:59;;;;;;;88.35;26.85;;;6.70;99.90;;;5.06;100.00;101610.34;4861975;28;20027;-79
2021/11/14 03:56:28;;;;;;;79.55;25.35;;;6.80;99.90;;;5.08;100.00;101610.34;4848099;28;20039;-79
2021/11/14 03:58:55;;;;;;;90.35;27.52;;;6.80;99.90;;;5.07;100.00;101614.69;4883105;28;20019;-79
2021/11/14 04:01:24;;;;;;;79.40;27.40;;;6.80;99.90;;;5.09;100.00;101612.91;4878240;28;20034;-79
2021/11/14 04:03:52;;;;;;;87.90;27.60;;;6.80;99.90;;;5.11;100.00;101584.19;4881376;28;20495;-79
2021/11/14 04:06:20;;;;;;;92.97;29.02;;;6.80;99.90;;;5.12;100.00;101618.13;4849606;28;20094;-79
2021/11/14 04:08:56;;;;;;;74.35;25.33;;;6.80;99.90;;;5.10;100.00;101546.78;4833700;28;20059;-79
2021/11/14 04:11:23;;;;;;;83.03;26.92;;;6.80;99.90;;;5.08;100.00;101592.94;4842140;28;20114;-79
2021/11/14 04:13:55;;;;;;;78.75;25.63;;;6.80;99.90;;;5.08;100.00;101739.13;4886614;28;20078;-79
2021/11/14 04:16:21;;;;;;;84.80;27.63;;;6.80;99.90;;;5.08;100.00;101668.63;4865184;28;20036;-80
2021/11/14 04:18:47;;;;;;;86.82;26.98;;;6.70;99.90;;;5.10;100.00;101663.41;4856948;28;20089;-80
2021/11/14 04:21:13;;;;;;;84.05;26.55;;;6.80;99.90;;;5.10;100.00;101666.88;4880576;28;20454;-80
2021/11/14 04:23:39;;;;;;;89.97;27.58;;;6.80;99.90;;;5.11;100.00;101673.81;4856716;28;20070;-79
2021/11/14 04:26:15;;;;;;;79.18;26.73;;;6.80;99.90;;;5.11;100.00;101676.44;4885793;28;20054;-79
2021/11/14 04:28:41;;;;;;;85.13;28.27;;;6.80;99.90;;;5.12;100.00;101672.97;4862138;28;20598;-80
2021/11/14 04:31:07;;;;;;;86.30;27.27;;;6.80;99.90;;;5.13;100.00;101679.91;4872144;28;20043;-79
2021/11/14 04:33:36;;;;;;;75.25;25.80;;;6.80;99.90;;;5.13;100.00;101690.34;4864778;28;20047;-79
2021/11/14 04:36:03;;;;;;;72.60;24.58;;;6.80;99.90;;;5.13;100.00;101684.25;4844565;28;20032;-80
2021/11/14 04:38:30;;;;;;;79.15;24.67;;;6.80;99.90;;;5.12;100.00;101687.75;4846718;28;20093;-79
2021/11/14 04:40:57;;;;;;;85.88;25.55;;;6.80;99.90;;;5.14;100.00;101686.88;4870111;28;20035;-79
2021/11/14 04:43:24;;;;;;;74.55;26.63;;;6.80;99.90;;;5.13;100.00;101682.50;4870431;28;20039;-79
2021/11/14 04:45:54;;;;;;;91.80;26.83;;;6.90;99.90;;;5.11;100.00;101681.66;4832682;28;20077;-79
2021/11/14 04:48:23;;;;;;;82.45;26.45;;;6.80;99.90;;;5.13;100.00;101689.47;4874125;28;20108;-80
2021/11/14 04:50:51;;;;;;;88.22;26.63;;;6.80;99.90;;;5.13;100.00;101686.88;4870095;28;20039;-79
2021/11/14 04:53:31;;;;;;;84.82;25.95;;;6.90;99.90;;;5.17;100.00;101685.09;4866338;28;20542;-79
2021/11/14 04:55:57;;;;;;;89.20;27.58;;;6.80;99.90;;;5.17;100.00;101695.56;4881687;28;20035;-79
2021/11/14 04:58:28;;;;;;;98.38;28.70;;;6.90;99.90;;;5.19;100.00;101693.78;4840090;28;20504;-80
2021/11/14 05:00:54;;;;;;;91.15;27.05;;;6.90;99.90;;;5.20;100.00;101695.50;4860098;28;20450;-79
2021/11/14 05:03:21;;;;;;;81.75;26.48;;;6.90;99.90;;;5.18;100.00;101692.03;4855600;28;20051;-79
2021/11/14 05:05:48;;;;;;;85.15;27.08;;;6.90;99.90;;;5.18;100.00;101695.50;4847364;29;20119;-79
2021/11/14 05:08:19;;;;;;;77.32;25.48;;;6.80;99.90;;;5.16;100.00;101699.88;4876684;28;20483;-79
2021/11/14 05:10:49;;;;;;;80.25;26.05;;;6.80;99.90;;;5.17;100.00;101703.38;4861836;28;20083;-79
2021/11/14 05:13:15;;;;;;;79.13;26.27;;;6.80;99.90;;;5.15;100.00;101711.22;4866068;28;20127;-80
2021/11/14 05:15:44;;;;;;;82.15;24.60;;;6.80;99.90;;;5.19;100.00;101714.69;4857614;28;20046;-79
2021/11/14 05:18:13;;;;;;;89.90;27.23;;;7.00;99.90;;;5.27;100.00;101718.97;4902303;28;20150;-80
2021/11/14 05:20:39;;;;;;;89.53;28.38;;;7.00;99.90;;;5.25;100.00;101719.84;4876942;28;20032;-78
2021/11/14 05:23:06;;;;;;;93.28;28.58;;;6.90;99.90;;;5.23;100.00;101713.78;4843742;28;20071;-80
2021/11/14 05:25:32;;;;;;;95.45;28.75;;;6.90;99.90;;;5.23;100.00;101721.63;4876329;28;20499;-79
2021/11/14 05:28:03;;;;;;;101.28;29.30;;;6.90;99.90;;;5.23;100.00;101713.78;4861205;28;20031;-79
2021/11/14 05:30:29;;;;;;;99.72;30.02;;;6.90;99.90;;;5.22;100.00;101718.09;4872789;28;20069;-79
2021/11/14 05:32:56;;;;;;;103.97;29.77;;;6.90;99.90;;;5.23;100.00;101719.84;4866105;28;20031;-79
2021/11/14 05:35:22;;;;;;;97.35;29.70;;;6.90;99.90;;;5.24;100.00;101707.66;4878635;28;20038;-79
2021/11/14 05:37:49;;;;;;;99.65;28.05;;;7.00;99.90;;;5.25;100.00;101714.63;4920333;28;20059;-79
2021/11/14 05:40:24;;;;;;;99.13;29.52;;;7.00;99.90;;;5.26;100.00;101713.75;4912156;28;20046;-79
2021/11/14 05:42:50;;;;;;;96.18;29.00;;;7.00;99.90;;;5.27;100.00;101726.78;4913295;29;20046;-79
2021/11/14 05:45:16;;;;;;;110.07;30.48;;;7.00;99.90;;;5.30;100.00;101728.50;4892332;28;20042;-79
2021/11/14 05:47:46;;;;;;;114.38;30.00;;;7.00;99.90;;;5.29;100.00;101732.88;4880907;28;20015;-80
2021/11/14 05:50:13;;;;;;;112.53;30.90;;;7.00;99.90;;;5.52;100.00;101742.22;4887232;28;20036;-80
2021/11/14 05:52:40;;;;;;;110.75;30.48;;;7.10;99.90;;;5.43;100.00;101734.50;4839531;28;20047;-80
2021/11/14 05:55:07;;;;;;;116.13;31.60;;;7.10;99.90;;;5.39;100.00;101722.34;4868133;28;20122;-80
2021/11/14 05:58:01;;;;;;;120.60;31.73;;;7.10;99.90;;;5.42;100.00;101719.69;4862891;28;20102;-79
2021/11/14 06:05:34;;;;;;;112.45;30.30;;;7.10;99.90;;;5.50;100.00;101737.00;4878131;28;20034;-80
2021/11/14 06:08:05;;;;;;;119.20;31.35;;;7.10;99.90;;;5.52;100.00;101743.09;4871009;28;20106;-80
2021/11/14 06:10:32;;;;;;;111.65;29.83;;;7.20;99.90;;;5.53;100.00;101738.75;4880097;28;20040;-80
2021/11/14 06:12:58;;;;;;;110.03;28.65;;;7.20;99.90;;;5.52;100.00;101735.25;4853950;28;20046;-79
2021/11/14 06:15:24;;;;;;;114.63;29.45;;;7.10;99.90;;;5.54;100.00;101746.56;4841838;28;20118;-78
2021/11/14 06:17:58;;;;;;;105.07;29.17;;;7.20;99.90;;;5.57;100.00;101750.03;4860558;28;20024;-80
2021/11/14 06:20:24;;;;;;;106.93;28.83;;;7.20;99.90;;;5.58;100.00;101757.00;4869986;28;20094;-79
2021/11/14 06:22:50;;;;;;;113.57;29.48;;;7.20;99.90;;;5.66;100.00;101763.88;4855271;28;20046;-79
2021/11/14 06:25:17;;;;;;;109.85;28.33;;;7.20;99.90;;;5.66;100.00;101769.09;4872937;28;20035;-79
2021/11/14 06:27:52;;;;;;;97.95;28.88;;;7.30;99.90;;;5.74;100.00;101777.75;4871499;28;20074;-80
2021/11/14 06:30:18;;;;;;;107.60;27.38;;;7.30;99.90;;;5.77;100.00;101787.28;4870516;28;20078;-79
2021/11/14 06:32:45;;;;;;;95.72;26.38;;;;;;;5.92;100.00;101796.75;4843008;28;20059;-79
2021/11/14 06:35:19;;;;;;;100.70;27.95;;;7.40;99.90;;;5.79;100.00;101785.53;4861793;28;21549;-80
2021/11/14 06:37:46;;;;;;;100.25;27.58;;;7.40;99.90;;;5.77;100.00;101787.28;4884230;28;20039;-79
2021/11/14 06:40:23;;;;;;;98.43;28.50;;;7.40;99.90;;;5.76;100.00;101793.38;4881096;28;20118;-79
2021/11/14 06:42:50;;;;;;;92.93;26.35;;;7.30;99.90;;;5.72;100.00;101794.28;4870615;28;20601;-79
2021/11/14 06:45:17;;;;;;;92.78;26.27;;;7.30;99.90;;;5.78;100.00;101807.31;4863774;28;20035;-79
2021/11/14 06:47:47;;;;;;;92.82;27.27;;;;;;;5.71;100.00;101801.28;4868132;28;20035;-80
2021/11/14 06:50:16;;;;;;;98.15;27.00;;;7.40;99.90;;;5.73;100.00;101814.34;4902499;28;20047;-80
2021/11/14 06:52:43;;;;;;;103.97;26.98;;;7.40;99.90;;;5.73;100.00;101814.34;4868018;28;20035;-80
2021/11/14 06:55:14;;;;;;;102.15;27.65;;;7.40;99.90;;;5.75;100.00;101813.44;4871403;28;20054;-79
2021/11/14 06:57:45;;;;;;;101.63;27.33;;;7.40;99.90;;;5.78;100.00;101827.34;4863461;28;20722;-80
2021/11/14 07:00:20;;;;;;;94.65;26.40;;;7.40;99.90;;;5.80;100.00;101829.06;4863649;28;20046;-79
2021/11/14 07:02:47;;;;;;;90.35;26.40;;;7.40;99.90;;;5.81;100.00;101830.81;4842721;28;20050;-79
2021/11/14 07:05:15;;;;;;;88.97;25.30;;;7.40;99.90;;;5.83;100.00;101839.53;4868104;28;20699;-79
2021/11/14 07:07:47;;;;;;;88.30;25.90;;;7.50;99.90;;;6.01;100.00;101843.72;4871450;28;20069;-79
2021/11/14 07:10:20;;;;;;;103.80;27.08;;;7.60;99.90;;;6.09;100.00;101835.78;4855831;28;20054;-79
2021/11/14 07:12:54;;;;;;;87.95;26.17;;;7.60;99.90;;;6.03;100.00;101834.13;4878448;28;20043;-80
2021/11/14 07:15:21;;;;;;;81.72;23.40;;;7.60;99.90;;;6.10;100.00;101848.00;4865087;28;20038;-79
2021/11/14 07:17:47;;;;;;;89.88;25.80;;;7.60;99.90;;;6.00;100.00;101839.38;4865194;28;20035;-79
2021/11/14 07:20:20;;;;;;;102.82;27.48;;;7.60;99.90;;;5.96;100.00;101835.03;4888421;28;20148;-78
2021/11/14 07:22:47;;;;;;;90.25;25.85;;;7.60;99.90;;;5.99;100.00;101845.50;4852621;28;20046;-80
2021/11/14 07:25:18;;;;;;;84.45;24.17;;;7.60;99.90;;;5.94;100.00;101837.69;4837699;28;21085;-80
2021/11/14 07:27:49;;;;;;;78.35;24.17;;;7.60;99.90;;;5.93;100.00;101840.28;4889962;28;20034;-80
2021/11/14 07:30:17;;;;;;;89.65;26.23;;;7.60;99.90;;;6.02;100.00;101842.84;4877597;28;20036;-79
2021/11/14 07:32:43;;;;;;;89.43;24.70;;;7.60;99.90;;;5.99;100.00;101849.84;4863405;28;20507;-80
2021/11/14 07:35:16;;;;;;;84.60;25.38;;;7.60;99.90;;;6.03;100.00;101855.03;4863341;28;20063;-79
2021/11/14 07:37:42;;;;;;;98.63;27.30;;;7.60;99.90;;;6.09;100.00;101854.09;4873668;28;20038;-79
2021/11/14 07:40:12;;;;;;;85.18;24.65;;;7.70;99.90;;;6.07;100.00;101856.75;4874140;28;20067;-79
2021/11/14 07:42:44;;;;;;;87.68;24.35;;;7.70;99.90;;;6.04;100.00;101848.06;4860641;28;20043;-79
2021/11/14 07:45:13;;;;;;;79.28;24.45;;;7.60;99.90;;;6.02;100.00;101845.44;4861726;28;20040;-80
2021/11/14 07:47:39;;;;;;;94.10;27.50;;;7.60;99.90;;;6.02;100.00;101849.81;4877957;28;20047;-80
2021/11/14 07:50:10;;;;;;;86.55;25.48;;;7.60;99.90;;;6.03;100.00;101851.56;4861776;28;20061;-78
2021/11/14 07:52:36;;;;;;;89.72;26.83;;;7.60;99.90;;;6.09;100.00;101859.31;4859645;28;20080;-80
2021/11/14 07:55:07;;;;;;;87.10;25.50;;;7.90;99.90;;;6.10;100.00;101855.84;4877548;28;20035;-80
2021/11/14 07:57:38;;;;;;;80.30;24.98;;;7.70;99.90;;;6.09;100.00;101854.97;4892497;28;20039;-79
2021/11/14 08:00:07;;;;;;;85.60;25.17;;;7.80;99.90;;;6.11;100.00;101860.19;4884989;28;20040;-80
2021/11/14 08:02:33;;;;;;;77.07;23.80;;;7.70;99.90;;;6.10;100.00;101861.06;4874097;28;20039;-80
2021/11/14 08:04:59;;;;;;;84.30;23.92;;;7.70;99.90;;;6.15;100.00;101869.72;4868798;28;20036;-79
2021/11/14 08:07:25;;;;;;;82.80;22.30;;;7.80;99.90;;;6.20;100.00;101885.38;4871789;28;20119;-79
2021/11/14 08:10:00;;;;;;;83.72;23.30;;;7.80;99.90;;;6.27;100.00;101903.63;4841188;28;20032;-79
2021/11/14 08:12:26;;;;;;;82.28;25.15;;;7.80;99.90;;;6.20;100.00;101890.59;4893848;28;20043;-79
2021/11/14 08:14:52;;;;;;;87.78;25.50;;;7.80;99.90;;;6.22;100.00;101894.97;4889446;28;20023;-80
2021/11/14 08:17:26;;;;;;;71.40;23.88;;;7.80;99.90;;;6.20;100.00;101904.56;4853450;28;20510;-79
2021/11/14 08:19:55;;;;;;;82.00;25.35;;;7.80;99.90;;;6.20;100.00;101914.13;4920238;28;20049;-79
2021/11/14 08:22:31;;;;;;;83.05;25.33;;;7.80;99.90;;;6.22;100.00;101915.88;4847299;28;20126;-80
2021/11/14 08:25:00;;;;;;;77.72;26.90;;;7.80;99.90;;;6.24;100.00;101911.50;4894463;28;20031;-80
2021/11/14 08:27:31;;;;;;;67.22;23.55;;;7.80;99.90;;;6.28;100.00;101910.56;4902706;28;20031;-80
2021/11/14 08:29:59;;;;;;;76.03;23.75;;;7.80;99.90;;;6.23;100.00;101901.91;4894080;28;20042;-79
2021/11/14 08:32:26;;;;;;;73.20;24.52;;;7.80;99.90;;;6.41;100.00;101928.78;4865324;28;20191;-79
2021/11/14 08:34:52;;;;;;;79.75;24.65;;;7.80;99.90;;;6.36;100.00;101921.81;4861100;28;20042;-80
2021/11/14 08:37:38;;;;;;;74.60;25.02;;;7.90;99.90;;;6.28;100.00;101915.81;4860988;28;20074;-79
2021/11/14 08:40:08;;;;;;;74.50;23.65;;;7.80;99.90;;;6.27;100.00;101934.16;4860651;28;20071;-80
2021/11/14 08:42:35;;;;;;;76.00;25.08;;;7.80;99.90;;;6.25;100.00;101926.31;4842190;28;20039;-79
2021/11/14 08:45:08;;;;;;;86.22;27.92;;;7.80;99.90;;;6.17;100.00;101925.50;4897311;28;20019;-80
2021/11/14 08:47:34;;;;;;;84.97;26.38;;;7.80;99.90;;;6.15;100.00;101935.09;4881810;28;20483;-80
2021/11/14 08:50:01;;;;;;;101.13;27.73;;;7.70;99.90;;;6.05;100.00;101936.94;4876128;28;20039;-79
2021/11/14 08:52:29;;;;;;;109.20;31.02;;;7.60;99.90;;;6.09;100.00;101961.31;4882430;28;20031;-78
2021/11/14 08:55:01;;;;;;;111.60;33.58;;;;;;;6.05;100.00;101959.63;4847447;28;20024;-79
2021/11/14 08:57:27;;;;;;;124.10;37.65;;;7.60;99.90;;;6.04;100.00;101960.50;4832637;28;20488;-78
2021/11/14 08:59:53;;;;;;;131.43;36.83;;;7.60;99.90;;;6.05;100.00;101964.84;4889713;28;20027;-78
2021/11/14 09:02:22;;;;;;;131.95;37.88;;;7.60;99.90;;;6.07;100.00;101973.53;4873872;28;20039;-78
2021/11/14 09:04:50;;;;;;;147.23;38.67;;;7.60;99.90;;;6.02;100.00;101968.34;4886410;28;20042;-79
2021/11/14 09:07:17;;;;;;;102.15;27.92;;;7.50;99.90;;;5.91;100.00;101968.38;4887847;28;20042;-79
2021/11/14 09:09:43;;;;;;;108.97;29.58;;;7.50;99.90;;;5.90;100.00;101963.19;4868188;28;20038;-79
2021/11/14 09:12:24;;;;;;;105.70;30.45;;;7.50;99.90;;;5.90;100.00;101977.13;4886660;28;20071;-78
2021/11/14 09:14:56;;;;;;;107.97;30.33;;;7.50;99.90;;;5.87;100.00;101984.09;4875033;28;20440;-79
2021/11/14 09:17:28;;;;;;;96.45;28.15;;;7.50;99.90;;;5.93;100.00;101984.06;4866223;29;20574;-79
2021/11/14 09:19:57;;;;;;;98.05;27.85;;;7.40;99.90;;;5.89;100.00;101995.41;4938976;28;20566;-79
2021/11/14 09:22:27;;;;;;;96.30;28.67;;;7.40;99.90;;;5.91;100.00;101999.75;4847115;28;20069;-81
2021/11/14 09:24:53;;;;;;;97.07;28.52;;;7.40;99.90;;;5.85;100.00;102002.44;4854437;28;20035;-80
2021/11/14 09:27:21;;;;;;;92.43;27.80;;;;;;;5.85;100.00;101999.81;4835913;28;21493;-80
2021/11/14 09:29:48;;;;;;;103.85;29.35;;;7.50;99.90;;;5.86;100.00;102012.00;4860911;28;20565;-80
2021/11/14 09:32:19;;;;;;;93.50;28.50;;;7.50;99.90;;;5.90;100.00;102015.47;4903235;28;20089;-79
2021/11/14 09:34:46;;;;;;;95.15;27.60;;;7.50;99.90;;;5.91;100.00;102020.66;4891039;28;20023;-80
2021/11/14 09:37:14;;;;;;;93.35;28.00;;;7.50;99.90;;;5.88;100.00;102017.22;4857312;28;20112;-80
2021/11/14 09:39:44;;;;;;;97.38;29.10;;;7.50;99.90;;;5.93;100.00;102026.75;4812460;29;20046;-79
2021/11/14 09:42:11;;;;;;;101.03;28.50;;;7.50;99.90;;;5.92;100.00;102019.81;4834286;29;20063;-80
2021/11/14 09:44:37;;;;;;;92.63;27.52;;;7.50;99.90;;;6.01;100.00;102036.34;4889365;28;20042;-80
2021/11/14 09:47:05;;;;;;;81.35;26.33;;;7.60;99.90;;;6.04;100.00;102024.09;4856545;28;20051;-80
2021/11/14 09:49:35;;;;;;;105.03;29.30;;;7.60;99.90;;;6.03;100.00;102029.38;4853860;28;20036;-79
2021/11/14 09:52:05;;;;;;;91.78;28.20;;;7.60;99.90;;;6.03;100.00;102032.84;4862124;28;20070;-79
2021/11/14 09:54:34;;;;;;;99.53;27.83;;;7.60;99.90;;;6.06;100.00;102045.03;4871219;28;20036;-80
2021/11/14 09:57:04;;;;;;;93.53;28.83;;;7.60;99.90;;;6.06;100.00;102037.19;4862540;28;20052;-78
2021/11/14 10:02:49;;;;;;;88.65;26.10;;;7.70;99.90;;;6.05;100.00;102020.63;4883008;28;20578;-79
2021/11/14 10:05:16;;;;;;;92.85;27.67;;;7.70;99.90;;;6.03;100.00;102032.84;4862201;28;20065;-79
2021/11/14 10:08:24;;;;;;;93.55;27.80;;;7.70;99.90;;;6.14;100.00;102041.47;4855520;28;20050;-79
2021/11/14 10:10:58;;;;;;;;;;;7.80;99.90;;;6.14;100.00;102032.78;4879496;28;20050;-80
2021/11/14 10:13:34;;;;;;;95.13;26.85;;;7.70;99.90;;;6.15;100.00;102042.34;4856611;28;19914;-79
2021/11/14 10:16:21;;;;;;;94.78;29.20;;;7.70;99.90;;;6.22;100.00;102051.00;4892995;28;20039;-79
2021/11/14 10:18:53;;;;;;;;;;;7.80;99.90;;;6.16;100.00;102041.47;4869473;28;20732;-79
2021/11/14 10:21:28;;;;;;;88.65;27.38;;;7.80;99.90;;;6.23;100.00;102050.13;4870089;28;20284;-79
2021/11/14 10:24:10;;;;;;;63.40;18.40;;;7.90;99.90;;;6.33;100.00;102055.28;4885276;28;20051;-80
2021/11/14 10:26:40;;;;;;;99.05;28.23;;;7.80;99.90;;;6.22;100.00;102041.44;4892787;28;20267;-79